Time;durP1;ratioP1;P1;durP2;ratioP2;P2;SDS_P1;SDS_P2;PMS_P1;PMS_P2;Temp;Humidity;BMP_temperature;BMP_pressure;BME280_temperature;BME280_humidity;BME280_pressure;Samples;Min_cycle;Max_cycle;Signal;HPM_P1;HPM_P2
2021/01/22 00:01:05;;;;;;;1.00;0.70;;;11.90;99.90;;;;;;5938975;24;20399;-79
2021/01/22 00:03:55;;;;;;;0.50;0.50;;;11.80;99.90;;;;;;5939804;24;20539;-80
2021/01/22 00:07:17;;;;;;;0.80;0.77;;;12.00;99.90;;;;;;5959173;24;20495;-80
2021/01/22 00:10:01;;;;;;;1.40;0.60;;;11.80;99.90;;;;;;5937286;24;20405;-81
2021/01/22 00:13:27;;;;;;;1.90;0.93;;;12.00;99.90;;;;;;5934947;24;20406;-79
2021/01/22 00:16:37;;;;;;;0.70;0.70;;;12.00;99.90;;;;;;6076632;23;20416;-81
2021/01/22 00:19:36;;;;;;;1.53;0.60;;;12.00;99.90;;;;;;6100844;23;20412;-82
2021/01/22 00:25:22;;;;;;;2.93;0.80;;;12.00;99.90;;;;;;6105217;23;20420;-80
2021/01/22 00:28:21;;;;;;;4.00;1.10;;;12.10;99.90;;;;;;6104845;23;20425;-81
2021/01/22 00:31:15;;;;;;;2.33;1.60;;;12.10;99.90;;;;;;6073817;23;20396;-79
2021/01/22 00:34:03;;;;;;;3.90;1.17;;;12.20;99.90;;;;;;6096929;23;20420;-83
2021/01/22 00:37:03;;;;;;;2.83;0.70;;;12.30;99.90;;;;;;6093730;23;21010;-79
2021/01/22 00:40:32;;;;;;;3.23;1.10;;;12.10;99.90;;;;;;6090497;23;20523;-81
2021/01/22 00:43:28;;;;;;;3.93;1.07;;;12.20;99.90;;;;;;6091989;23;20440;-83
2021/01/22 00:46:37;;;;;;;3.47;1.20;;;12.30;99.70;;;;;;6063996;23;20420;-81
2021/01/22 00:49:54;;;;;;;3.90;1.63;;;12.30;99.60;;;;;;6192796;23;20402;-82
2021/01/22 00:53:14;;;;;;;2.73;0.90;;;12.40;99.60;;;;;;6169686;23;20406;-82
2021/01/22 00:56:29;;;;;;;2.63;0.80;;;12.30;99.80;;;;;;6182776;23;20422;-79
2021/01/22 00:59:19;;;;;;;2.27;0.80;;;12.30;99.60;;;;;;6179316;23;20779;-81
2021/01/22 01:03:04;;;;;;;2.70;1.10;;;12.40;99.70;;;;;;6142893;23;20406;-83
2021/01/22 01:06:09;;;;;;;1.83;0.87;;;12.30;99.90;;;;;;6163203;23;20502;-84
2021/01/22 01:08:55;;;;;;;3.70;0.80;;;12.40;99.90;;;;;;6157473;23;20795;-81
2021/01/22 01:11:58;;;;;;;3.03;0.87;;;12.30;99.90;;;;;;6159912;23;20395;-83
2021/01/22 01:19:13;;;;;;;2.00;0.80;;;12.40;99.90;;;;;;4409067;27;21356868;-82
2021/01/22 01:21:58;;;;;;;2.30;0.80;;;12.40;99.90;;;;;;5169849;27;20216;-79
2021/01/22 01:24:53;;;;;;;3.40;0.60;;;12.40;99.90;;;;;;5156835;27;20550;-79
2021/01/22 01:27:57;;;;;;;1.73;0.80;;;12.20;99.90;;;;;;5144433;27;20717;-79
2021/01/22 01:30:36;;;;;;;0.87;0.70;;;12.30;99.90;;;;;;5147586;27;20540;-79
2021/01/22 01:33:41;;;;;;;4.63;1.00;;;12.10;99.90;;;;;;5142607;27;20481;-78
2021/01/22 01:36:33;;;;;;;2.00;0.60;;;12.10;99.90;;;;;;5069007;28;21007;-79
2021/01/22 01:39:09;;;;;;;1.60;0.53;;;12.20;99.90;;;;;;5073901;28;20451;-79
2021/01/22 01:42:32;;;;;;;1.47;0.90;;;12.20;99.90;;;;;;4993503;28;20540;-80
2021/01/22 01:48:25;;;;;;;1.50;0.90;;;12.10;99.90;;;;;;5012650;28;20439;-81
2021/01/22 01:51:45;;;;;;;2.00;0.83;;;12.10;99.90;;;;;;4969481;28;20431;-80
2021/01/22 01:57:53;;;;;;;3.77;1.20;;;12.10;99.90;;;;;;4978616;28;20487;-81
2021/01/22 02:01:26;;;;;;;1.80;0.90;;;12.20;99.90;;;;;;4985764;28;20435;-82
2021/01/22 02:07:48;;;;;;;1.83;0.50;;;12.10;99.90;;;;;;5027575;28;20572;-82
2021/01/22 02:14:11;;;;;;;1.73;0.90;;;12.10;99.90;;;;;;5007911;28;20457;-80
2021/01/22 02:17:30;;;;;;;;;;;;;;;;;;;;;
2021/01/22 02:20:34;;;;;;;1.20;0.47;;;10.70;99.90;;;;;;5024258;28;20480;-81
2021/01/22 02:23:49;;;;;;;1.27;0.50;;;10.30;99.90;;;;;;5020467;28;20468;-81
2021/01/22 02:27:12;;;;;;;3.50;0.50;;;10.10;99.90;;;;;;5006418;28;20485;-80
2021/01/22 02:30:11;;;;;;;0.50;0.40;;;9.90;99.90;;;;;;5017700;28;20441;-81
2021/01/22 02:36:23;;;;;;;0.87;0.33;;;9.70;99.90;;;;;;4978381;28;20571;-77
2021/01/22 02:39:20;;;;;;;0.97;0.40;;;9.60;99.90;;;;;;4995691;28;21696;-80
2021/01/22 02:42:03;;;;;;;0.50;0.40;;;9.50;99.90;;;;;;5001569;28;20453;-80
2021/01/22 02:44:59;;;;;;;1.33;0.40;;;9.40;99.90;;;;;;4996695;28;20485;-80
2021/01/22 02:47:59;;;;;;;0.50;0.50;;;9.30;99.90;;;;;;4988592;28;20455;-79
2021/01/22 02:50:50;;;;;;;0.57;0.57;;;9.20;99.90;;;;;;5011056;28;20450;-81
2021/01/22 02:53:51;;;;;;;0.70;0.70;;;9.20;99.90;;;;;;5000727;28;20413;-80
2021/01/22 02:57:12;;;;;;;0.83;0.70;;;9.10;99.90;;;;;;5007348;28;20482;-82
2021/01/22 03:00:43;;;;;;;1.00;0.90;;;8.80;99.90;;;;;;4985450;28;20453;-78
2021/01/22 03:04:01;;;;;;;;;;;;;;;;;;;;;
2021/01/22 03:07:00;;;;;;;1.10;1.10;;;8.40;99.90;;;;;;5003506;28;20490;-82
2021/01/22 03:10:08;;;;;;;1.30;1.20;;;8.30;99.90;;;;;;4989687;28;20450;-82
2021/01/22 03:12:53;;;;;;;1.30;1.30;;;8.20;99.90;;;;;;5003667;28;20451;-82
2021/01/22 03:15:44;;;;;;;1.50;1.40;;;8.20;99.90;;;;;;4989733;28;20562;-81
2021/01/22 03:19:01;;;;;;;1.70;1.60;;;8.20;99.90;;;;;;4992851;28;20489;-79
2021/01/22 03:21:50;;;;;;;1.73;1.63;;;8.30;99.90;;;;;;5012782;28;20439;-80
2021/01/22 03:24:33;;;;;;;1.37;1.27;;;8.20;99.90;;;;;;4997630;28;20452;-78
2021/01/22 03:30:18;;;;;;;3.57;1.60;;;8.20;99.90;;;;;;4999634;28;20470;-78
2021/01/22 03:33:06;;;;;;;1.60;1.50;;;8.20;99.90;;;;;;5014110;28;20477;-79
2021/01/22 03:36:00;;;;;;;1.73;1.63;;;8.20;99.90;;;;;;5007671;28;20454;-82
2021/01/22 03:38:30;;;;;;;1.70;1.60;;;8.10;99.90;;;;;;5013900;28;20474;-79
2021/01/22 03:41:15;;;;;;;1.70;1.60;;;8.10;99.90;;;;;;4994448;28;20507;-79
2021/01/22 03:43:59;;;;;;;1.63;1.53;;;8.10;99.90;;;;;;4986426;28;20485;-79
2021/01/22 03:46:57;;;;;;;2.07;1.97;;;8.00;99.90;;;;;;4986447;28;20489;-82
2021/01/22 03:49:45;;;;;;;1.90;1.80;;;8.00;99.90;;;;;;5002656;28;20469;-79
2021/01/22 03:52:42;;;;;;;2.03;1.93;;;8.00;99.90;;;;;;4992149;28;20430;-81
2021/01/22 03:55:19;;;;;;;2.10;2.00;;;8.00;99.90;;;;;;4982745;28;20484;-80
2021/01/22 03:58:24;;;;;;;2.43;2.33;;;7.90;99.90;;;;;;4989886;28;20564;-81
2021/01/22 04:04:16;;;;;;;2.57;2.47;;;8.00;99.90;;;;;;4990585;28;20435;-80
2021/01/22 04:07:04;;;;;;;2.70;2.50;;;8.00;99.90;;;;;;4986700;28;20590;-81
2021/01/22 04:10:24;;;;;;;3.10;2.37;;;8.00;99.90;;;;;;4996364;28;20434;-82
2021/01/22 04:13:17;;;;;;;3.20;3.00;;;8.00;99.90;;;;;;4995356;28;21517;-80
2021/01/22 04:16:19;;;;;;;2.40;2.30;;;8.00;99.90;;;;;;4970331;28;20475;-83
2021/01/22 04:18:52;;;;;;;2.23;2.13;;;8.10;99.90;;;;;;4983153;28;20759;-78
2021/01/22 04:21:35;;;;;;;2.50;2.20;;;8.10;99.90;;;;;;4987991;28;20476;-81
2021/01/22 04:24:05;;;;;;;2.83;2.63;;;8.00;99.90;;;;;;4995895;28;20466;-81
2021/01/22 04:26:47;;;;;;;3.00;2.43;;;8.00;99.90;;;;;;4985429;28;20513;-83
2021/01/22 04:29:23;;;;;;;2.40;2.30;;;8.00;99.90;;;;;;4992581;28;20461;-82
2021/01/22 04:32:14;;;;;;;2.67;2.47;;;7.90;99.90;;;;;;4996830;28;20462;-82
2021/01/22 04:34:53;;;;;;;3.03;2.57;;;7.90;99.90;;;;;;4997498;28;20520;-83
2021/01/22 04:37:43;;;;;;;2.67;2.47;;;8.00;99.90;;;;;;4993295;28;20483;-80
2021/01/22 04:40:35;;;;;;;4.50;2.10;;;8.30;99.90;;;;;;4997822;28;20463;-81
2021/01/22 04:43:15;;;;;;;3.93;3.60;;;8.10;99.90;;;;;;4996460;28;21198;-83
2021/01/22 04:45:56;;;;;;;3.00;2.77;;;8.00;99.90;;;;;;4982406;28;20478;-80
2021/01/22 04:48:47;;;;;;;3.00;2.80;;;8.00;99.90;;;;;;4997772;28;20482;-80
2021/01/22 04:51:53;;;;;;;;;;;;;;;;;;;;;
2021/01/22 04:54:52;;;;;;;2.73;2.47;;;8.30;99.90;;;;;;5001884;28;20454;-80
2021/01/22 04:57:39;;;;;;;3.27;2.97;;;8.10;99.90;;;;;;4933800;28;20481;-80
2021/01/22 05:00:22;;;;;;;2.70;2.50;;;8.10;99.90;;;;;;4986511;28;20463;-82
2021/01/22 05:03:06;;;;;;;2.50;2.30;;;8.40;99.90;;;;;;4983060;28;20450;-82
2021/01/22 05:05:47;;;;;;;3.10;2.90;;;8.50;99.90;;;;;;5002773;28;20488;-80
2021/01/22 05:08:22;;;;;;;3.30;3.00;;;8.30;99.90;;;;;;5001907;28;20462;-80
2021/01/22 05:10:59;;;;;;;3.87;3.57;;;8.20;99.90;;;;;;5001474;28;20483;-80
2021/01/22 05:14:00;;;;;;;;;;;;;;;;;;;;;
2021/01/22 05:16:43;;;;;;;4.17;3.77;;;8.10;99.90;;;;;;5006889;28;20481;-81
2021/01/22 05:19:26;;;;;;;3.67;3.37;;;8.10;99.90;;;;;;4993726;28;20517;-79
2021/01/22 05:21:59;;;;;;;3.93;3.63;;;8.00;99.90;;;;;;5003163;28;20847;-79
2021/01/22 05:24:35;;;;;;;4.60;4.20;;;7.90;99.90;;;;;;5006918;28;20508;-81
2021/01/22 05:27:24;;;;;;;3.50;3.20;;;8.00;99.90;;;;;;4993702;28;21486;-80
2021/01/22 05:30:07;;;;;;;3.73;3.43;;;8.10;99.90;;;;;;4990906;28;20451;-80
2021/01/22 05:33:08;;;;;;;4.00;3.70;;;8.10;99.90;;;;;;4996292;28;20494;-80
2021/01/22 05:35:39;;;;;;;3.93;3.63;;;8.10;99.90;;;;;;5006782;28;20451;-78
2021/01/22 05:39:03;;;;;;;4.23;3.93;;;8.00;99.90;;;;;;5018027;28;20501;-79
2021/01/22 05:41:53;;;;;;;5.80;3.97;;;7.80;99.90;;;;;;4993616;28;20521;-78
2021/01/22 05:44:45;;;;;;;3.50;3.20;;;7.70;99.90;;;;;;5017312;28;20450;-81
2021/01/22 05:47:35;;;;;;;3.47;3.17;;;7.60;99.90;;;;;;5015833;28;20476;-79
2021/01/22 05:50:16;;;;;;;3.60;3.30;;;7.60;99.90;;;;;;5015969;28;20446;-79
2021/01/22 05:53:17;;;;;;;3.53;3.17;;;8.00;99.90;;;;;;5015754;28;20457;-79
2021/01/22 05:56:21;;;;;;;4.30;3.90;;;8.10;99.90;;;;;;5000587;28;20465;-81
2021/01/22 05:58:56;;;;;;;4.10;3.67;;;8.20;99.90;;;;;;5015761;28;20466;-79
2021/01/22 06:01:53;;;;;;;4.53;4.13;;;8.20;99.90;;;;;;4991365;28;20993;-80
2021/01/22 06:04:31;;;;;;;7.90;5.23;;;8.30;99.90;;;;;;4990100;28;20893;-80
2021/01/22 06:07:19;;;;;;;6.40;5.07;;;8.10;99.90;;;;;;5002768;28;20462;-81
2021/01/22 06:09:55;;;;;;;7.10;5.47;;;8.10;99.90;;;;;;5008334;28;20463;-78
2021/01/22 06:12:26;;;;;;;8.70;5.30;;;8.00;99.90;;;;;;4994497;28;20470;-79
2021/01/22 06:15:02;;;;;;;7.40;6.27;;;8.10;99.90;;;;;;4995443;22;20750;-81
2021/01/22 06:17:55;;;;;;;5.63;5.13;;;8.10;99.90;;;;;;5068130;28;20487;-80
2021/01/22 06:20:35;;;;;;;5.63;5.00;;;7.90;99.90;;;;;;5068554;28;20470;-80
2021/01/22 06:23:17;;;;;;;4.90;4.40;;;7.80;99.90;;;;;;5048655;28;20527;-80
2021/01/22 06:26:27;;;;;;;7.93;5.53;;;7.90;99.90;;;;;;5049737;28;20517;-82
2021/01/22 06:29:27;;;;;;;5.47;4.70;;;8.00;99.90;;;;;;5067331;28;20450;-81
2021/01/22 06:32:08;;;;;;;9.30;5.07;;;8.00;99.90;;;;;;5057452;28;20454;-83
2021/01/22 06:35:00;;;;;;;4.40;4.00;;;7.80;99.90;;;;;;5055912;28;20442;-81
2021/01/22 06:37:48;;;;;;;4.80;4.20;;;7.80;99.90;;;;;;5067735;28;20487;-82
2021/01/22 06:40:20;;;;;;;3.50;2.93;;;7.70;99.90;;;;;;5050970;28;20462;-83
2021/01/22 06:43:00;;;;;;;;;;;;;;;;;;;;;
2021/01/22 06:46:15;;;;;;;3.50;3.17;;;8.00;99.90;;;;;;5067636;28;20514;-81
2021/01/22 06:49:04;;;;;;;3.67;3.10;;;7.90;99.90;;;;;;5051510;28;20467;-82
2021/01/22 06:51:46;;;;;;;4.13;3.27;;;8.00;99.90;;;;;;5051446;28;20557;-83
2021/01/22 06:54:20;;;;;;;4.03;3.63;;;7.80;99.90;;;;;;5050011;28;20459;-82
2021/01/22 06:57:11;;;;;;;3.87;3.47;;;7.90;99.90;;;;;;5050910;28;20486;-83
2021/01/22 06:59:48;;;;;;;5.33;3.70;;;7.90;99.90;;;;;;5068260;28;21059;-82
2021/01/22 07:02:39;;;;;;;6.23;3.60;;;7.90;99.90;;;;;;5051202;28;20459;-80
2021/01/22 07:05:42;;;;;;;4.00;3.60;;;7.80;99.90;;;;;;5049490;28;20583;-81
2021/01/22 07:08:17;;;;;;;4.13;3.73;;;7.90;99.90;;;;;;5062269;28;20470;-81
2021/01/22 07:11:02;;;;;;;4.57;3.50;;;7.90;99.90;;;;;;5055603;28;20455;-80
2021/01/22 07:13:48;;;;;;;3.70;3.40;;;8.00;99.90;;;;;;5050752;28;20477;-84
2021/01/22 07:16:28;;;;;;;5.30;3.87;;;7.80;99.90;;;;;;5049372;28;20536;-79
2021/01/22 07:22:21;;;;;;;3.70;3.40;;;7.60;99.90;;;;;;5076518;28;20462;-78
2021/01/22 07:25:33;;;;;;;;;;;;;;;;;;;;;
2021/01/22 07:28:26;;;;;;;2.60;2.40;;;7.80;99.90;;;;;;5074081;28;20439;-79
2021/01/22 07:30:55;;;;;;;2.07;1.77;;;7.90;99.90;;;;;;5049481;28;20448;-79
2021/01/22 07:33:42;;;;;;;2.87;2.57;;;7.80;99.90;;;;;;5051922;28;20506;-80
2021/01/22 07:36:38;;;;;;;2.37;2.17;;;7.70;99.90;;;;;;5068594;28;20497;-81
2021/01/22 07:39:22;;;;;;;3.10;2.50;;;7.70;99.90;;;;;;5060390;28;20451;-79
2021/01/22 07:42:19;;;;;;;2.70;2.20;;;7.80;99.90;;;;;;5062976;28;20497;-80
2021/01/22 07:44:53;;;;;;;3.20;2.00;;;7.90;99.90;;;;;;5082599;28;20443;-81
2021/01/22 07:47:46;;;;;;;1.83;1.60;;;7.80;99.90;;;;;;5079239;28;20444;-79
2021/01/22 07:50:39;;;;;;;2.53;1.60;;;7.90;99.90;;;;;;5061026;28;20499;-79
2021/01/22 07:53:21;;;;;;;1.60;1.50;;;7.70;99.90;;;;;;5072932;28;20459;-79
2021/01/22 07:56:03;;;;;;;2.10;1.50;;;7.80;99.90;;;;;;5073907;28;20471;-79
2021/01/22 07:58:45;;;;;;;1.27;1.17;;;7.80;99.90;;;;;;5071312;28;20479;-80
2021/01/22 08:01:42;;;;;;;2.10;1.17;;;7.90;99.90;;;;;;5087599;28;21692;-80
2021/01/22 08:07:08;;;;;;;2.33;1.37;;;8.00;99.90;;;;;;5242356;22;20483;-81
2021/01/22 08:10:16;;;;;;;2.77;1.50;;;7.80;99.90;;;;;;5060727;28;20438;-78
2021/01/22 08:13:15;;;;;;;1.57;1.47;;;7.90;99.90;;;;;;5078921;28;20582;-80
2021/01/22 08:16:24;;;;;;;2.20;1.20;;;7.90;99.90;;;;;;5077645;28;20466;-81
2021/01/22 08:19:28;;;;;;;2.37;1.70;;;7.80;99.90;;;;;;5051437;28;20455;-78
2021/01/22 08:22:16;;;;;;;2.00;1.50;;;7.80;99.90;;;;;;5075674;28;20525;-82
2021/01/22 08:24:50;;;;;;;1.47;1.37;;;7.90;99.90;;;;;;5080930;28;20459;-78
2021/01/22 08:27:32;;;;;;;1.50;1.40;;;7.80;99.90;;;;;;5060322;28;20443;-81
2021/01/22 08:30:39;;;;;;;;;;;;;;;;;;;;;
2021/01/22 08:33:17;;;;;;;1.37;1.27;;;8.00;99.90;;;;;;5075178;28;20476;-78
2021/01/22 08:36:05;;;;;;;2.07;1.50;;;7.90;99.90;;;;;;5065504;28;20851;-79
2021/01/22 08:38:41;;;;;;;2.10;1.43;;;8.10;99.90;;;;;;5054982;28;20490;-79
2021/01/22 08:41:36;;;;;;;2.07;1.80;;;8.00;99.90;;;;;;5071984;28;20777;-80
2021/01/22 08:45:05;;;;;;;4.80;1.60;;;8.00;99.90;;;;;;5070634;28;20454;-81
2021/01/22 08:48:19;;;;;;;;;;;;;;;;;;;;;
2021/01/22 08:50:59;;;;;;;3.07;1.63;;;8.20;99.90;;;;;;5067251;28;20451;-76
2021/01/22 08:54:20;;;;;;;4.87;1.33;;;8.10;99.90;;;;;;4981167;28;20477;-79
2021/01/22 08:57:41;;;;;;;3.40;1.17;;;8.10;99.90;;;;;;4982172;28;20641;-83
2021/01/22 09:03:33;;;;;;;1.93;1.43;;;8.10;99.90;;;;;;4994711;28;20463;-82
2021/01/22 09:06:34;;;;;;;1.73;1.23;;;8.20;99.90;;;;;;5015931;28;20523;-79
2021/01/22 09:13:35;;;;;;;2.10;1.10;;;8.30;99.90;;;;;;5017677;28;20458;-81
2021/01/22 09:20:01;;;;;;;;;;;;;;;;;;;;;
2021/01/22 09:24:00;;;;;;;;;;;;;;;;;;;;;
2021/01/22 09:26:46;;;;;;;1.30;1.20;;;8.30;99.90;;;;;;4948256;28;20525;-82
2021/01/22 09:29:32;;;;;;;1.23;1.13;;;8.30;99.90;;;;;;4940548;28;20453;-81
2021/01/22 11:00:52;;;;;;;2.57;1.77;;;9.00;99.90;;;;;;4996682;28;20481;-82
2021/01/22 11:07:31;;;;;;;4.00;1.97;;;9.20;99.90;;;;;;4968827;28;20454;-82
2021/01/22 11:10:42;;;;;;;2.37;1.57;;;9.40;99.90;;;;;;4996515;28;20445;-82
2021/01/22 11:13:41;;;;;;;2.67;2.43;;;9.80;99.70;;;;;;4960463;28;20452;-81
2021/01/22 11:16:44;;;;;;;8.60;2.47;;;9.80;99.90;;;;;;4961423;28;20946;-80
2021/01/22 11:19:34;;;;;;;3.80;2.33;;;9.80;99.90;;;;;;4959559;28;20474;-81
2021/01/22 11:22:33;;;;;;;5.87;2.00;;;9.50;99.90;;;;;;4962086;28;20480;-82
2021/01/22 11:25:23;;;;;;;2.73;1.83;;;9.30;99.90;;;;;;4959060;28;20492;-81
2021/01/22 11:28:14;;;;;;;3.20;2.30;;;9.60;99.90;;;;;;4978211;28;20464;-82
2021/01/22 11:31:02;;;;;;;3.43;2.37;;;9.40;99.90;;;;;;4968745;28;20461;-82
2021/01/22 11:34:02;;;;;;;2.50;2.20;;;9.30;99.90;;;;;;4956178;28;20494;-81
2021/01/22 11:36:54;;;;;;;7.60;2.43;;;9.10;99.90;;;;;;4961832;28;20478;-79
2021/01/22 11:39:44;;;;;;;3.90;2.27;;;9.00;99.90;;;;;;4962235;28;20472;-82
2021/01/22 11:42:49;;;;;;;2.30;1.80;;;9.00;99.90;;;;;;4873324;29;20451;-82
2021/01/22 11:46:03;;;;;;;2.17;1.90;;;9.00;99.90;;;;;;4935558;29;20474;-80
2021/01/22 11:49:21;;;;;;;3.10;1.93;;;9.00;99.90;;;;;;4960501;28;20579;-78
2021/01/22 11:55:41;;;;;;;4.53;2.57;;;9.20;99.90;;;;;;4946773;29;20488;-79
2021/01/22 11:58:31;;;;;;;2.80;1.97;;;9.10;99.90;;;;;;4948172;29;20472;-80
2021/01/22 12:01:14;;;;;;;7.97;2.20;;;9.10;99.90;;;;;;4996716;28;20570;-79
2021/01/22 12:04:00;;;;;;;3.40;2.43;;;9.00;99.90;;;;;;5016954;28;20435;-79
2021/01/22 12:06:49;;;;;;;4.30;1.90;;;9.00;99.90;;;;;;5036106;28;20459;-81
2021/01/22 12:09:42;;;;;;;3.67;2.20;;;9.00;99.90;;;;;;5022134;28;20462;-81
2021/01/22 12:12:42;;;;;;;3.83;1.87;;;9.00;99.90;;;;;;5005033;28;20448;-79
2021/01/22 12:15:28;;;;;;;1.97;1.70;;;8.90;99.90;;;;;;5016055;28;20479;-81
2021/01/22 12:18:22;;;;;;;1.50;1.40;;;8.90;99.90;;;;;;4997951;28;21093;-82
2021/01/22 12:21:09;;;;;;;8.63;3.27;;;8.90;99.90;;;;;;5015050;28;20479;-81
2021/01/22 12:24:09;;;;;;;2.73;1.97;;;9.00;99.90;;;;;;5002646;28;20540;-83
2021/01/22 12:26:36;;;;;;;2.53;1.83;;;9.10;99.90;;;;;;5014868;28;20493;-82
2021/01/22 12:29:43;;;;;;;3.50;2.10;;;9.20;99.90;;;;;;5017243;28;20463;-79
2021/01/22 14:58:59;;;;;;;5.20;2.60;;;8.90;99.90;;;;;;4276092;26;20484;-82
2021/01/22 15:02:19;;;;;;;2.30;1.97;;;8.90;99.90;;;;;;5006128;28;20488;-80
2021/01/22 15:08:13;;;;;;;3.07;2.70;;;8.80;99.80;;;;;;5017031;28;20436;-79
2021/01/22 15:11:09;;;;;;;3.07;2.37;;;8.80;99.80;;;;;;4978191;28;20474;-79
2021/01/22 15:14:34;;;;;;;;;;;;;;;;;;;;;
2021/01/22 15:21:07;;;;;;;6.87;2.80;;;8.70;99.40;;;;;;5005170;28;20441;-83
2021/01/22 15:24:15;;;;;;;3.70;2.53;;;8.80;99.40;;;;;;4980854;28;20511;-80
2021/01/22 15:27:06;;;;;;;3.73;3.30;;;8.70;99.20;;;;;;4987809;28;20466;-81
2021/01/22 15:30:00;;;;;;;3.53;2.63;;;8.70;98.90;;;;;;4998737;28;20460;-81
2021/01/22 15:33:08;;;;;;;5.43;3.70;;;8.70;98.70;;;;;;5004866;28;20461;-80
2021/01/22 15:35:51;;;;;;;4.83;4.27;;;8.60;98.50;;;;;;5013088;28;20501;-79
2021/01/22 15:38:32;;;;;;;2.90;2.60;;;8.70;98.70;;;;;;5006516;28;20480;-81
2021/01/22 15:41:21;;;;;;;7.47;3.47;;;8.60;98.50;;;;;;5017194;28;20740;-82
2021/01/22 15:44:43;;;;;;;4.97;2.60;;;8.60;98.50;;;;;;5002910;28;22004;-81
2021/01/22 15:47:33;;;;;;;4.60;3.03;;;8.60;98.50;;;;;;4996053;28;20581;-79
2021/01/22 15:50:26;;;;;;;5.33;2.93;;;8.60;98.20;;;;;;4999376;28;20473;-80
2021/01/22 15:57:00;;;;;;;6.77;2.70;;;8.60;97.80;;;;;;4941850;29;20476;-81
2021/01/22 16:00:12;;;;;;;;;;;;;;;;;;;;;
2021/01/22 16:03:46;;;;;;;8.40;6.37;;;8.60;97.60;;;;;;4945175;28;20444;-80
2021/01/22 16:06:56;;;;;;;3.40;2.53;;;8.60;97.80;;;;;;4881793;28;20600;-80
2021/01/22 16:10:31;;;;;;;4.50;2.50;;;8.60;97.90;;;;;;4957951;28;20463;-78
2021/01/22 16:14:17;;;;;;;4.10;2.33;;;8.80;97.30;;;;;;4933940;28;20457;-79
2021/01/22 16:28:53;;;;;;;4.30;3.03;;;9.00;96.80;;;;;;4816615;29;20424;-81
2021/01/22 16:31:43;;;;;;;4.40;2.80;;;8.90;96.30;;;;;;4810819;29;20424;-80
2021/01/22 16:35:45;;;;;;;3.33;2.63;;;8.90;96.40;;;;;;4814312;29;20511;-79
2021/01/22 16:38:00;;;;;;;4.07;2.30;;;9.00;95.90;;;;;;4793205;29;20543;-81
2021/01/22 16:41:11;;;;;;;5.37;3.17;;;9.00;95.80;;;;;;4789232;30;20457;-79
2021/01/22 16:44:20;;;;;;;6.00;2.63;;;8.90;95.90;;;;;;4786089;29;21080;-79
2021/01/22 16:47:33;;;;;;;5.73;2.60;;;8.70;96.20;;;;;;4834261;29;20478;-80
2021/01/22 16:51:00;;;;;;;;;;;;;;;;;;;;;
2021/01/22 16:57:46;;;;;;;6.53;3.50;;;8.40;97.30;;;;;;4766381;30;20442;-82
2021/01/22 17:04:38;;;;;;;;;;;;;;;;;;;;;
2021/01/22 17:08:10;;;;;;;;;;;;;;;;;;;;;
2021/01/22 17:11:03;;;;;;;4.20;3.37;;;8.40;98.10;;;;;;4827530;29;20459;-80
2021/01/22 17:17:16;;;;;;;7.40;3.30;;;8.80;96.80;;;;;;4904296;28;20606;-82
2021/01/22 17:20:14;;;;;;;5.80;3.70;;;8.90;96.30;;;;;;4972758;28;20447;-79
2021/01/22 17:23:26;;;;;;;5.57;3.77;;;8.60;96.60;;;;;;4976684;28;20430;-79
2021/01/22 17:26:38;;;;;;;9.53;3.87;;;8.40;97.20;;;;;;4958233;28;21921;-79
2021/01/22 17:36:24;;;;;;;10.10;4.50;;;8.50;98.00;;;;;;5056671;28;20552;-82
2021/01/22 17:39:21;;;;;;;3.93;3.50;;;8.50;97.40;;;;;;5045872;28;20508;-79
2021/01/22 17:42:19;;;;;;;;;;;;;;;;;;;;;
2021/01/22 17:45:09;;;;;;;5.03;3.90;;;8.30;97.90;;;;;;5053703;28;20452;-80
2021/01/22 17:48:28;;;;;;;7.80;3.90;;;8.20;98.30;;;;;;5054746;28;20456;-79
2021/01/22 17:58:11;;;;;;;5.63;4.07;;;8.90;96.80;;;;;;5060435;28;20538;-80
2021/01/22 18:00:57;;;;;;;6.90;4.83;;;8.80;96.50;;;;;;5037616;28;20451;-79
2021/01/22 18:07:15;;;;;;;6.77;4.30;;;8.80;96.50;;;;;;5043092;28;20492;-78
2021/01/22 18:09:54;;;;;;;6.70;4.00;;;8.60;96.70;;;;;;5053587;28;20444;-78
2021/01/22 18:16:28;;;;;;;4.30;3.90;;;8.40;97.30;;;;;;4989846;28;20476;-82
2021/01/22 18:19:04;;;;;;;6.30;4.10;;;8.10;98.00;;;;;;5019824;28;21050;-80
2021/01/22 18:22:04;;;;;;;;;;;;;;;;;;;;;
2021/01/22 18:25:11;;;;;;;5.33;3.70;;;8.20;98.50;;;;;;5033472;28;20421;-80
2021/01/22 18:27:54;;;;;;;6.50;5.07;;;8.10;98.50;;;;;;5039278;28;20455;-80
2021/01/22 18:30:53;;;;;;;4.90;3.80;;;8.10;98.80;;;;;;5030499;28;20449;-80
2021/01/22 18:33:54;;;;;;;5.20;4.30;;;8.10;99.00;;;;;;5044777;28;20559;-80
2021/01/22 18:40:37;;;;;;;9.13;4.50;;;7.90;99.30;;;;;;5032129;28;20527;-81
2021/01/22 18:44:21;;;;;;;8.80;5.07;;;7.80;99.60;;;;;;4949579;29;20485;-80
2021/01/22 18:47:11;;;;;;;9.73;4.73;;;8.00;99.70;;;;;;4900826;29;20568;-82
2021/01/22 18:54:03;;;;;;;5.70;4.37;;;8.20;98.90;;;;;;4912634;29;20455;-82
2021/01/22 19:00:40;;;;;;;9.30;5.37;;;8.10;99.30;;;;;;4917699;29;20507;-79
2021/01/22 19:03:36;;;;;;;7.83;5.23;;;8.40;98.40;;;;;;4920848;29;20459;-81
2021/01/22 19:06:33;;;;;;;8.35;5.63;;;8.20;98.50;;;;;;5220729;22;10002993;-81
2021/01/22 19:17:20;;;;;;;7.33;6.20;;;7.80;99.90;;;;;;4950998;28;20487;-79
2021/01/22 19:24:06;;;;;;;;;;;;;;;;;;;;;
2021/01/22 19:27:16;;;;;;;8.87;6.13;;;7.90;99.90;;;;;;4946967;28;20452;-81
2021/01/22 19:34:08;;;;;;;8.30;4.63;;;7.70;99.90;;;;;;5005488;28;20434;-81
2021/01/22 19:37:23;;;;;;;6.63;5.47;;;7.70;99.90;;;;;;5006131;28;20469;-80
2021/01/22 19:40:43;;;;;;;9.70;6.83;;;7.70;99.90;;;;;;4986262;28;20534;-79
2021/01/22 19:43:33;;;;;;;13.70;9.13;;;7.60;99.90;;;;;;4993211;28;20791;-79
2021/01/22 19:50:06;;;;;;;7.80;6.80;;;7.50;99.90;;;;;;4946121;29;20556;-81
2021/01/22 19:53:30;;;;;;;7.00;6.17;;;7.60;99.90;;;;;;4938704;29;20458;-81
2021/01/22 19:56:15;;;;;;;6.70;6.10;;;7.70;99.90;;;;;;4942334;29;20560;-80
2021/01/22 20:03:43;;;;;;;6.60;5.90;;;8.00;99.80;;;;;;4989817;28;20518;-80
2021/01/22 20:07:15;;;;;;;11.00;5.70;;;8.10;99.40;;;;;;4988901;28;20459;-79
2021/01/22 20:10:29;;;;;;;8.13;6.50;;;8.20;98.60;;;;;;4986231;28;20474;-80
2021/01/22 20:14:09;;;;;;;;;;;;;;;;;;;;;
2021/01/22 20:17:05;;;;;;;7.77;6.10;;;8.00;99.00;;;;;;4978899;28;20466;-79
2021/01/22 20:20:39;;;;;;;8.40;7.00;;;7.90;99.20;;;;;;4998460;28;21874;-81
2021/01/22 20:28:07;;;;;;;9.73;6.53;;;7.70;99.50;;;;;;5316811;23;20476;-78
2021/01/22 20:31:28;;;;;;;8.50;5.33;;;7.50;99.90;;;;;;4993117;28;20444;-80
2021/01/22 20:34:20;;;;;;;7.97;5.47;;;7.50;99.90;;;;;;5008286;28;20557;-80
2021/01/22 20:37:42;;;;;;;9.67;6.00;;;7.30;99.90;;;;;;5021060;28;20525;-77
2021/01/22 20:41:11;;;;;;;7.47;6.67;;;7.60;99.90;;;;;;4938972;28;20489;-77
2021/01/22 20:44:18;;;;;;;8.47;6.60;;;7.80;99.90;;;;;;5005705;28;20582;-80
2021/01/22 20:48:06;;;;;;;;;;;;;;;;;;;;;
2021/01/22 20:51:30;;;;;;;9.40;7.30;;;7.70;99.90;;;;;;4999722;28;20451;-79
2021/01/22 20:54:46;;;;;;;10.00;6.97;;;7.70;99.90;;;;;;4906366;29;20471;-81
2021/01/22 20:58:08;;;;;;;7.67;6.57;;;7.60;99.90;;;;;;4885247;29;20451;-79
2021/01/22 21:01:39;;;;;;;8.90;6.80;;;7.50;99.90;;;;;;4867524;29;20459;-82
2021/01/22 21:05:05;;;;;;;11.73;6.80;;;7.40;99.90;;;;;;4828321;29;20490;-80
2021/01/22 21:08:35;;;;;;;8.77;6.93;;;7.40;99.90;;;;;;4767545;30;20440;-79
2021/01/22 21:11:51;;;;;;;;;;;;;;;;;;;;;
2021/01/22 21:15:24;;;;;;;7.77;6.63;;;7.20;99.90;;;;;;4783460;29;20482;-81
2021/01/22 21:18:53;;;;;;;8.53;7.03;;;7.30;99.90;;;;;;4822063;29;20495;-81
2021/01/22 21:25:34;;;;;;;7.53;6.60;;;7.00;99.90;;;;;;4911944;23;20622;-80
2021/01/22 21:29:08;;;;;;;8.07;6.57;;;7.00;99.90;;;;;;5035017;28;21226;-79
2021/01/22 21:32:32;;;;;;;6.83;6.10;;;7.00;99.90;;;;;;4904644;28;20549;-80
2021/01/22 21:43:41;;;;;;;8.60;7.67;;;7.20;99.90;;;;;;4798650;29;20465;-83
2021/01/22 21:46:24;;;;;;;9.90;7.73;;;7.20;99.90;;;;;;4746471;30;20473;-85
2021/01/22 21:49:47;;;;;;;8.90;7.40;;;7.20;99.90;;;;;;4757070;30;20458;-84
2021/01/22 21:55:46;;;;;;;10.43;8.33;;;6.70;99.90;;;;;;4763690;29;21121;-85
2021/01/22 21:59:01;;;;;;;10.60;8.30;;;6.60;99.90;;;;;;4837655;29;20514;-83
2021/01/22 22:02:25;;;;;;;11.97;7.63;;;6.60;99.90;;;;;;4884731;29;20455;-83
2021/01/22 22:05:42;;;;;;;10.23;7.50;;;6.80;99.90;;;;;;4880749;29;20605;-87
2021/01/22 22:09:04;;;;;;;10.00;7.77;;;6.90;99.90;;;;;;4900975;29;20645;-84
2021/01/22 22:12:23;;;;;;;10.43;7.57;;;7.00;99.90;;;;;;4946505;29;20970;-83
2021/01/22 22:15:33;;;;;;;9.70;7.97;;;7.30;99.90;;;;;;4996040;28;20557;-83
2021/01/22 22:18:28;;;;;;;9.93;8.43;;;7.30;99.90;;;;;;5019835;28;20556;-82
2021/01/22 22:21:37;;;;;;;11.47;8.60;;;7.10;99.90;;;;;;5016872;28;20489;-84
2021/01/22 22:24:59;;;;;;;10.93;7.70;;;7.00;99.90;;;;;;5014214;28;20429;-86
2021/01/22 22:28:35;;;;;;;;;;;;;;;;;;;;;
2021/01/22 22:31:47;;;;;;;11.93;7.90;;;7.00;99.90;;;;;;5009770;28;20430;-86
2021/01/22 22:42:29;;;;;;;12.73;8.93;;;6.80;99.90;;;;;;5010509;28;20419;-83
2021/01/22 22:49:05;;;;;;;8.47;7.53;;;6.70;99.90;;;;;;5018998;28;20821;-86
2021/01/22 22:55:59;;;;;;;11.90;7.93;;;7.10;99.90;;;;;;4932911;28;20445;-86
2021/01/22 22:58:55;;;;;;;9.40;8.43;;;7.10;99.90;;;;;;4958066;28;20499;-85
2021/01/22 23:02:17;;;;;;;8.70;7.83;;;6.90;99.90;;;;;;4938170;28;20524;-85